sensor_id;sensor_type;location;lat;lon;timestamp;noise_LAeq;noise_LA_min;noise_LA_max;noise_LA01;noise_LA95
73638;Laerm;53743;51.100;5.874;2023-07-24T00:00:30;54.14;29.99;68.20;;
73638;Laerm;53743;51.100;5.874;2023-07-24T00:01:32;59.64;29.55;74.80;;
73638;Laerm;53743;51.100;5.874;2023-07-24T00:02:34;39.27;28.80;55.72;;
73638;Laerm;53743;51.100;5.874;2023-07-24T00:03:35;30.19;28.28;34.91;;
73638;Laerm;53743;51.100;5.874;2023-07-24T00:04:37;30.79;29.03;34.66;;
73638;Laerm;53743;51.100;5.874;2023-07-24T00:05:38;30.49;28.91;33.37;;
73638;Laerm;53743;51.100;5.874;2023-07-24T00:06:39;30.74;28.95;39.58;;
73638;Laerm;53743;51.100;5.874;2023-07-24T00:07:41;31.04;29.31;37.56;;
73638;Laerm;53743;51.100;5.874;2023-07-24T00:08:42;31.72;29.37;46.58;;
73638;Laerm;53743;51.100;5.874;2023-07-24T00:09:44;31.72;29.65;36.38;;
73638;Laerm;53743;51.100;5.874;2023-07-24T00:10:47;31.20;29.32;36.52;;
73638;Laerm;53743;51.100;5.874;2023-07-24T00:11:49;32.68;29.29;41.38;;
73638;Laerm;53743;51.100;5.874;2023-07-24T00:12:50;31.54;29.28;36.75;;
73638;Laerm;53743;51.100;5.874;2023-07-24T00:13:51;30.64;28.97;37.56;;
73638;Laerm;53743;51.100;5.874;2023-07-24T00:14:53;30.39;28.74;34.72;;
73638;Laerm;53743;51.100;5.874;2023-07-24T00:15:54;31.31;29.45;38.58;;
73638;Laerm;53743;51.100;5.874;2023-07-24T00:16:56;30.97;28.80;40.84;;
73638;Laerm;53743;51.100;5.874;2023-07-24T00:17:57;32.13;29.62;34.67;;
73638;Laerm;53743;51.100;5.874;2023-07-24T00:18:59;31.62;29.80;36.44;;
73638;Laerm;53743;51.100;5.874;2023-07-24T00:20:01;30.98;29.12;35.48;;
73638;Laerm;53743;51.100;5.874;2023-07-24T00:21:03;30.86;28.85;37.26;;
73638;Laerm;53743;51.100;5.874;2023-07-24T00:22:05;31.13;28.05;45.96;;
73638;Laerm;53743;51.100;5.874;2023-07-24T00:23:07;30.83;28.48;41.37;;
73638;Laerm;53743;51.100;5.874;2023-07-24T00:24:08;31.89;29.58;36.85;;
73638;Laerm;53743;51.100;5.874;2023-07-24T00:25:10;35.61;30.11;45.60;;
73638;Laerm;53743;51.100;5.874;2023-07-24T00:26:12;32.94;29.42;39.92;;
73638;Laerm;53743;51.100;5.874;2023-07-24T00:27:14;54.18;31.08;68.16;;
73638;Laerm;53743;51.100;5.874;2023-07-24T00:28:16;33.21;29.38;53.94;;
73638;Laerm;53743;51.100;5.874;2023-07-24T00:29:18;32.32;29.20;40.73;;
73638;Laerm;53743;51.100;5.874;2023-07-24T00:30:19;31.52;29.05;36.53;;
73638;Laerm;53743;51.100;5.874;2023-07-24T00:31:21;31.03;28.82;42.29;;
73638;Laerm;53743;51.100;5.874;2023-07-24T00:32:22;30.79;28.69;47.40;;
73638;Laerm;53743;51.100;5.874;2023-07-24T00:33:24;31.36;28.82;40.46;;
73638;Laerm;53743;51.100;5.874;2023-07-24T00:34:25;32.37;29.91;42.93;;
73638;Laerm;53743;51.100;5.874;2023-07-24T00:35:27;30.36;28.07;34.55;;
73638;Laerm;53743;51.100;5.874;2023-07-24T00:36:28;30.30;28.12;40.55;;
73638;Laerm;53743;51.100;5.874;2023-07-24T00:37:30;30.69;28.38;33.83;;
73638;Laerm;53743;51.100;5.874;2023-07-24T00:38:31;30.07;28.33;35.68;;
73638;Laerm;53743;51.100;5.874;2023-07-24T00:39:33;30.59;28.53;48.79;;
73638;Laerm;53743;51.100;5.874;2023-07-24T00:40:35;30.75;28.49;33.77;;
73638;Laerm;53743;51.100;5.874;2023-07-24T00:41:38;30.13;28.63;35.35;;
73638;Laerm;53743;51.100;5.874;2023-07-24T00:42:39;30.55;28.86;33.15;;
73638;Laerm;53743;51.100;5.874;2023-07-24T00:43:41;30.74;28.63;33.94;;
73638;Laerm;53743;51.100;5.874;2023-07-24T00:44:42;56.23;29.38;72.21;;
73638;Laerm;53743;51.100;5.874;2023-07-24T00:45:47;30.31;28.58;33.95;;
73638;Laerm;53743;51.100;5.874;2023-07-24T00:46:50;31.25;28.70;37.89;;
73638;Laerm;53743;51.100;5.874;2023-07-24T00:47:55;64.42;32.92;79.69;;
73638;Laerm;53743;51.100;5.874;2023-07-24T00:48:56;31.46;28.58;38.21;;
73638;Laerm;53743;51.100;5.874;2023-07-24T00:49:59;30.79;28.69;36.03;;
73638;Laerm;53743;51.100;5.874;2023-07-24T00:51:00;58.96;29.49;75.14;;
73638;Laerm;53743;51.100;5.874;2023-07-24T00:52:04;43.31;29.13;57.85;;
73638;Laerm;53743;51.100;5.874;2023-07-24T00:53:05;30.14;28.52;34.39;;
73638;Laerm;53743;51.100;5.874;2023-07-24T00:54:08;30.51;28.22;37.50;;
73638;Laerm;53743;51.100;5.874;2023-07-24T00:55:12;30.58;28.50;34.45;;
73638;Laerm;53743;51.100;5.874;2023-07-24T00:56:17;29.85;28.18;35.79;;
73638;Laerm;53743;51.100;5.874;2023-07-24T00:57:19;30.90;28.76;49.35;;
73638;Laerm;53743;51.100;5.874;2023-07-24T00:58:22;31.83;29.22;35.02;;
73638;Laerm;53743;51.100;5.874;2023-07-24T00:59:23;57.62;30.36;72.31;;
73638;Laerm;53743;51.100;5.874;2023-07-24T01:00:26;35.17;29.32;44.88;;
73638;Laerm;53743;51.100;5.874;2023-07-24T01:01:29;55.51;29.71;71.38;;
73638;Laerm;53743;51.100;5.874;2023-07-24T01:02:31;31.31;29.16;33.82;;
73638;Laerm;53743;51.100;5.874;2023-07-24T01:03:35;30.75;28.82;35.45;;
73638;Laerm;53743;51.100;5.874;2023-07-24T01:04:38;30.70;28.57;37.20;;
73638;Laerm;53743;51.100;5.874;2023-07-24T01:05:39;61.55;32.74;77.05;;
73638;Laerm;53743;51.100;5.874;2023-07-24T01:06:42;37.30;30.31;47.63;;
73638;Laerm;53743;51.100;5.874;2023-07-24T01:07:43;31.91;29.06;38.28;;
73638;Laerm;53743;51.100;5.874;2023-07-24T01:08:45;31.50;29.43;35.45;;
73638;Laerm;53743;51.100;5.874;2023-07-24T01:09:46;31.81;29.95;38.66;;
73638;Laerm;53743;51.100;5.874;2023-07-24T01:10:49;32.03;29.75;34.52;;
73638;Laerm;53743;51.100;5.874;2023-07-24T01:13:18;30.63;28.63;35.14;;
73638;Laerm;53743;51.100;5.874;2023-07-24T01:14:26;31.45;29.08;45.77;;
73638;Laerm;53743;51.100;5.874;2023-07-24T01:15:34;31.89;29.70;36.64;;
73638;Laerm;53743;51.100;5.874;2023-07-24T01:16:42;55.53;31.59;70.90;;
73638;Laerm;53743;51.100;5.874;2023-07-24T01:17:52;33.69;30.85;39.66;;
73638;Laerm;53743;51.100;5.874;2023-07-24T01:19:03;34.97;31.53;45.82;;
73638;Laerm;53743;51.100;5.874;2023-07-24T01:20:11;55.58;30.07;70.23;;
73638;Laerm;53743;51.100;5.874;2023-07-24T01:21:22;32.60;30.24;35.76;;
73638;Laerm;53743;51.100;5.874;2023-07-24T01:22:39;32.94;30.32;37.61;;
73638;Laerm;53743;51.100;5.874;2023-07-24T01:23:59;40.45;30.87;57.38;;
73638;Laerm;53743;51.100;5.874;2023-07-24T01:25:17;55.37;30.68;72.40;;
73638;Laerm;53743;51.100;5.874;2023-07-24T01:26:23;51.45;30.16;68.36;;
73638;Laerm;53743;51.100;5.874;2023-07-24T01:27:26;32.00;29.21;44.13;;
73638;Laerm;53743;51.100;5.874;2023-07-24T01:28:29;37.34;29.24;50.47;;
73638;Laerm;53743;51.100;5.874;2023-07-24T01:29:30;60.97;30.94;77.36;;
73638;Laerm;53743;51.100;5.874;2023-07-24T01:30:32;32.18;29.83;35.31;;
73638;Laerm;53743;51.100;5.874;2023-07-24T01:31:33;60.22;30.39;78.93;;
73638;Laerm;53743;51.100;5.874;2023-07-24T01:32:35;33.30;29.08;43.83;;
73638;Laerm;53743;51.100;5.874;2023-07-24T01:33:37;31.35;29.66;34.24;;
73638;Laerm;53743;51.100;5.874;2023-07-24T01:34:39;31.59;29.52;38.10;;
73638;Laerm;53743;51.100;5.874;2023-07-24T01:35:44;31.53;28.96;36.23;;
73638;Laerm;53743;51.100;5.874;2023-07-24T01:36:49;31.47;29.43;34.73;;
73638;Laerm;53743;51.100;5.874;2023-07-24T01:37:52;31.97;29.51;34.76;;
73638;Laerm;53743;51.100;5.874;2023-07-24T01:38:55;31.92;29.48;35.41;;
73638;Laerm;53743;51.100;5.874;2023-07-24T01:40:00;36.62;29.61;45.28;;
73638;Laerm;53743;51.100;5.874;2023-07-24T01:41:02;31.86;29.90;36.76;;
73638;Laerm;53743;51.100;5.874;2023-07-24T01:42:06;31.22;29.26;40.89;;
73638;Laerm;53743;51.100;5.874;2023-07-24T01:43:08;32.53;28.64;44.62;;
73638;Laerm;53743;51.100;5.874;2023-07-24T01:44:11;35.99;31.06;46.16;;
73638;Laerm;53743;51.100;5.874;2023-07-24T01:45:12;32.76;29.79;38.43;;
73638;Laerm;53743;51.100;5.874;2023-07-24T01:46:14;32.38;30.06;35.10;;
73638;Laerm;53743;51.100;5.874;2023-07-24T01:47:15;32.05;29.43;38.84;;
73638;Laerm;53743;51.100;5.874;2023-07-24T01:48:17;31.71;29.52;40.94;;
73638;Laerm;53743;51.100;5.874;2023-07-24T01:49:18;59.46;29.23;75.50;;
73638;Laerm;53743;51.100;5.874;2023-07-24T01:50:20;39.16;29.36;55.28;;
73638;Laerm;53743;51.100;5.874;2023-07-24T01:51:22;31.16;29.10;34.81;;
73638;Laerm;53743;51.100;5.874;2023-07-24T01:52:24;32.80;30.23;43.97;;
73638;Laerm;53743;51.100;5.874;2023-07-24T01:53:25;35.81;31.87;55.95;;
73638;Laerm;53743;51.100;5.874;2023-07-24T01:54:27;33.58;30.85;51.18;;
73638;Laerm;53743;51.100;5.874;2023-07-24T01:55:28;33.21;30.56;51.95;;
73638;Laerm;53743;51.100;5.874;2023-07-24T01:56:30;36.47;31.42;60.28;;
73638;Laerm;53743;51.100;5.874;2023-07-24T01:57:33;38.13;32.31;61.83;;
73638;Laerm;53743;51.100;5.874;2023-07-24T01:58:35;39.63;33.70;59.96;;
73638;Laerm;53743;51.100;5.874;2023-07-24T01:59:36;40.03;35.11;63.51;;
73638;Laerm;53743;51.100;5.874;2023-07-24T02:00:38;36.94;31.91;52.16;;
73638;Laerm;53743;51.100;5.874;2023-07-24T02:01:39;38.28;29.98;66.65;;
73638;Laerm;53743;51.100;5.874;2023-07-24T02:02:41;31.64;28.98;48.05;;
73638;Laerm;53743;51.100;5.874;2023-07-24T02:03:42;31.89;29.13;49.39;;
73638;Laerm;53743;51.100;5.874;2023-07-24T02:04:46;32.07;29.25;46.20;;
73638;Laerm;53743;51.100;5.874;2023-07-24T02:05:49;39.44;31.13;55.69;;
73638;Laerm;53743;51.100;5.874;2023-07-24T02:06:52;55.12;30.62;70.99;;
73638;Laerm;53743;51.100;5.874;2023-07-24T02:07:53;34.28;30.39;60.23;;
73638;Laerm;53743;51.100;5.874;2023-07-24T02:08:55;35.13;30.26;61.93;;
73638;Laerm;53743;51.100;5.874;2023-07-24T02:09:57;38.86;31.99;67.98;;
73638;Laerm;53743;51.100;5.874;2023-07-24T02:10:59;35.82;31.01;52.55;;
73638;Laerm;53743;51.100;5.874;2023-07-24T02:12:00;43.42;31.20;58.88;;
73638;Laerm;53743;51.100;5.874;2023-07-24T02:13:04;57.91;41.46;73.05;;
73638;Laerm;53743;51.100;5.874;2023-07-24T02:14:08;43.32;33.10;64.50;;
73638;Laerm;53743;51.100;5.874;2023-07-24T02:15:10;36.09;32.19;59.59;;
73638;Laerm;53743;51.100;5.874;2023-07-24T02:16:13;36.39;32.22;56.77;;
73638;Laerm;53743;51.100;5.874;2023-07-24T02:17:15;36.22;32.43;55.64;;
73638;Laerm;53743;51.100;5.874;2023-07-24T02:18:16;36.03;31.97;55.22;;
73638;Laerm;53743;51.100;5.874;2023-07-24T02:19:19;38.94;32.63;65.46;;
73638;Laerm;53743;51.100;5.874;2023-07-24T02:20:20;37.81;34.00;52.88;;
73638;Laerm;53743;51.100;5.874;2023-07-24T02:21:22;40.14;33.42;64.41;;
73638;Laerm;53743;51.100;5.874;2023-07-24T02:22:23;43.39;37.96;61.28;;
73638;Laerm;53743;51.100;5.874;2023-07-24T02:23:24;44.59;39.57;66.03;;
73638;Laerm;53743;51.100;5.874;2023-07-24T02:24:26;47.66;40.92;72.92;;
73638;Laerm;53743;51.100;5.874;2023-07-24T02:25:27;56.13;43.15;78.14;;
73638;Laerm;53743;51.100;5.874;2023-07-24T02:26:30;59.75;43.31;77.51;;
73638;Laerm;53743;51.100;5.874;2023-07-24T02:27:32;48.63;43.80;70.46;;
73638;Laerm;53743;51.100;5.874;2023-07-24T02:28:36;46.85;42.80;63.73;;
73638;Laerm;53743;51.100;5.874;2023-07-24T02:29:37;47.52;41.69;75.16;;
73638;Laerm;53743;51.100;5.874;2023-07-24T02:30:39;59.71;41.28;73.95;;
73638;Laerm;53743;51.100;5.874;2023-07-24T02:31:40;46.06;40.53;69.14;;
73638;Laerm;53743;51.100;5.874;2023-07-24T02:32:41;48.68;41.35;70.50;;
73638;Laerm;53743;51.100;5.874;2023-07-24T02:33:43;49.29;42.20;75.69;;
73638;Laerm;53743;51.100;5.874;2023-07-24T02:34:44;58.88;46.93;72.18;;
73638;Laerm;53743;51.100;5.874;2023-07-24T02:35:45;60.36;47.52;81.50;;
73638;Laerm;53743;51.100;5.874;2023-07-24T02:36:49;48.59;43.03;70.82;;
73638;Laerm;53743;51.100;5.874;2023-07-24T02:37:50;46.32;40.14;63.10;;
73638;Laerm;53743;51.100;5.874;2023-07-24T02:38:52;45.82;41.11;61.08;;
73638;Laerm;53743;51.100;5.874;2023-07-24T02:39:53;56.41;41.01;71.27;;
73638;Laerm;53743;51.100;5.874;2023-07-24T02:40:55;46.38;40.50;64.18;;
73638;Laerm;53743;51.100;5.874;2023-07-24T02:41:56;42.55;37.62;62.02;;
73638;Laerm;53743;51.100;5.874;2023-07-24T02:42:58;38.73;35.04;56.49;;
73638;Laerm;53743;51.100;5.874;2023-07-24T02:44:02;37.51;34.69;50.38;;
73638;Laerm;53743;51.100;5.874;2023-07-24T02:45:06;36.88;33.91;47.30;;
73638;Laerm;53743;51.100;5.874;2023-07-24T02:46:11;59.75;34.75;71.69;;
73638;Laerm;53743;51.100;5.874;2023-07-24T02:47:13;60.73;36.76;76.36;;
73638;Laerm;53743;51.100;5.874;2023-07-24T02:48:14;43.95;36.78;66.06;;
73638;Laerm;53743;51.100;5.874;2023-07-24T02:49:16;59.39;35.31;74.45;;
73638;Laerm;53743;51.100;5.874;2023-07-24T02:50:17;57.34;38.22;71.34;;
73638;Laerm;53743;51.100;5.874;2023-07-24T02:51:19;40.85;33.26;54.40;;
73638;Laerm;53743;51.100;5.874;2023-07-24T02:52:20;52.46;33.14;65.42;;
73638;Laerm;53743;51.100;5.874;2023-07-24T02:53:24;41.49;33.65;56.74;;
73638;Laerm;53743;51.100;5.874;2023-07-24T02:54:26;37.72;33.26;53.92;;
73638;Laerm;53743;51.100;5.874;2023-07-24T02:55:28;35.16;32.77;47.54;;
73638;Laerm;53743;51.100;5.874;2023-07-24T02:56:29;35.38;32.85;48.91;;
73638;Laerm;53743;51.100;5.874;2023-07-24T02:57:31;55.26;32.94;70.34;;
73638;Laerm;53743;51.100;5.874;2023-07-24T02:58:32;39.04;33.62;49.75;;
73638;Laerm;53743;51.100;5.874;2023-07-24T02:59:36;48.52;39.97;54.39;;
73638;Laerm;53743;51.100;5.874;2023-07-24T03:00:37;59.39;31.24;73.91;;
73638;Laerm;53743;51.100;5.874;2023-07-24T03:01:39;33.20;30.90;46.27;;
73638;Laerm;53743;51.100;5.874;2023-07-24T03:02:40;33.80;31.03;45.61;;
73638;Laerm;53743;51.100;5.874;2023-07-24T03:03:42;55.56;32.31;69.23;;
73638;Laerm;53743;51.100;5.874;2023-07-24T03:04:43;61.98;34.63;76.57;;
73638;Laerm;53743;51.100;5.874;2023-07-24T03:05:46;35.26;33.00;45.10;;
73638;Laerm;53743;51.100;5.874;2023-07-24T03:06:48;35.47;32.09;50.44;;
73638;Laerm;53743;51.100;5.874;2023-07-24T03:07:50;35.30;31.04;46.04;;
73638;Laerm;53743;51.100;5.874;2023-07-24T03:08:51;53.35;32.63;68.51;;
73638;Laerm;53743;51.100;5.874;2023-07-24T03:09:53;35.82;31.58;46.10;;
73638;Laerm;53743;51.100;5.874;2023-07-24T03:10:54;38.17;31.40;50.59;;
73638;Laerm;53743;51.100;5.874;2023-07-24T03:11:56;55.29;31.83;70.23;;
73638;Laerm;53743;51.100;5.874;2023-07-24T03:12:58;58.35;33.18;75.06;;
73638;Laerm;53743;51.100;5.874;2023-07-24T03:14:00;60.81;36.66;73.66;;
73638;Laerm;53743;51.100;5.874;2023-07-24T03:15:04;42.60;34.85;57.53;;
73638;Laerm;53743;51.100;5.874;2023-07-24T03:16:06;45.53;37.50;62.92;;
73638;Laerm;53743;51.100;5.874;2023-07-24T03:17:07;56.53;35.68;69.14;;
73638;Laerm;53743;51.100;5.874;2023-07-24T03:18:10;51.04;36.48;73.93;;
73638;Laerm;53743;51.100;5.874;2023-07-24T03:19:11;55.23;38.90;69.82;;
73638;Laerm;53743;51.100;5.874;2023-07-24T03:20:16;46.13;39.16;67.60;;
73638;Laerm;53743;51.100;5.874;2023-07-24T03:21:19;59.99;40.71;72.71;;
73638;Laerm;53743;51.100;5.874;2023-07-24T03:22:20;59.76;41.74;75.60;;
73638;Laerm;53743;51.100;5.874;2023-07-24T03:23:22;58.87;42.05;70.06;;
73638;Laerm;53743;51.100;5.874;2023-07-24T03:24:23;59.22;43.76;73.91;;
73638;Laerm;53743;51.100;5.874;2023-07-24T03:25:25;61.20;44.59;77.49;;
73638;Laerm;53743;51.100;5.874;2023-07-24T03:26:26;58.81;44.15;78.50;;
73638;Laerm;53743;51.100;5.874;2023-07-24T03:27:28;59.41;44.41;76.06;;
73638;Laerm;53743;51.100;5.874;2023-07-24T03:28:29;62.99;43.24;75.57;;
73638;Laerm;53743;51.100;5.874;2023-07-24T03:29:31;47.62;42.42;69.52;;
73638;Laerm;53743;51.100;5.874;2023-07-24T03:30:34;43.53;38.73;61.06;;
73638;Laerm;53743;51.100;5.874;2023-07-24T03:31:36;39.63;36.81;49.74;;
73638;Laerm;53743;51.100;5.874;2023-07-24T03:32:38;39.92;36.40;58.02;;
73638;Laerm;53743;51.100;5.874;2023-07-24T03:33:40;60.04;36.89;75.80;;
73638;Laerm;53743;51.100;5.874;2023-07-24T03:34:41;62.43;40.85;76.07;;
73638;Laerm;53743;51.100;5.874;2023-07-24T03:35:42;59.85;43.98;74.59;;
73638;Laerm;53743;51.100;5.874;2023-07-24T03:36:44;49.96;44.31;75.25;;
73638;Laerm;53743;51.100;5.874;2023-07-24T03:37:46;46.83;42.11;63.65;;
73638;Laerm;53743;51.100;5.874;2023-07-24T03:38:47;62.97;43.91;73.73;;
73638;Laerm;53743;51.100;5.874;2023-07-24T03:39:49;42.97;38.54;66.37;;
73638;Laerm;53743;51.100;5.874;2023-07-24T03:40:50;47.54;40.86;74.15;;
73638;Laerm;53743;51.100;5.874;2023-07-24T03:41:52;60.00;44.61;75.10;;
73638;Laerm;53743;51.100;5.874;2023-07-24T03:42:53;57.98;37.54;73.17;;
73638;Laerm;53743;51.100;5.874;2023-07-24T03:43:56;64.28;39.93;76.04;;
73638;Laerm;53743;51.100;5.874;2023-07-24T03:44:58;60.86;37.49;74.38;;
73638;Laerm;53743;51.100;5.874;2023-07-24T03:46:03;41.03;36.84;51.33;;
73638;Laerm;53743;51.100;5.874;2023-07-24T03:47:04;57.26;35.91;71.33;;
73638;Laerm;53743;51.100;5.874;2023-07-24T03:48:06;37.34;34.51;46.93;;
73638;Laerm;53743;51.100;5.874;2023-07-24T03:49:07;37.30;34.72;52.27;;
73638;Laerm;53743;51.100;5.874;2023-07-24T03:50:10;59.81;34.93;74.67;;
73638;Laerm;53743;51.100;5.874;2023-07-24T03:51:11;58.14;35.62;72.63;;
73638;Laerm;53743;51.100;5.874;2023-07-24T03:52:13;36.74;33.93;43.40;;
73638;Laerm;53743;51.100;5.874;2023-07-24T03:53:14;57.42;34.66;72.35;;
73638;Laerm;53743;51.100;5.874;2023-07-24T03:54:16;59.20;34.22;73.97;;
73638;Laerm;53743;51.100;5.874;2023-07-24T03:55:17;36.32;33.18;44.31;;
73638;Laerm;53743;51.100;5.874;2023-07-24T03:56:19;52.66;34.38;68.00;;
73638;Laerm;53743;51.100;5.874;2023-07-24T03:57:20;56.62;34.12;72.00;;
73638;Laerm;53743;51.100;5.874;2023-07-24T03:58:22;36.85;33.56;45.03;;
73638;Laerm;53743;51.100;5.874;2023-07-24T03:59:23;38.06;35.05;56.63;;
73638;Laerm;53743;51.100;5.874;2023-07-24T04:00:25;56.22;34.69;71.99;;
73638;Laerm;53743;51.100;5.874;2023-07-24T04:01:28;42.92;34.36;56.36;;
73638;Laerm;53743;51.100;5.874;2023-07-24T04:02:30;64.21;37.17;78.90;;
73638;Laerm;53743;51.100;5.874;2023-07-24T04:03:31;47.22;34.93;62.56;;
73638;Laerm;53743;51.100;5.874;2023-07-24T04:04:33;62.82;35.59;76.67;;
73638;Laerm;53743;51.100;5.874;2023-07-24T04:05:35;56.91;34.33;72.12;;
73638;Laerm;53743;51.100;5.874;2023-07-24T04:06:37;53.98;34.17;66.99;;
73638;Laerm;53743;51.100;5.874;2023-07-24T04:07:38;59.24;34.38;79.75;;
73638;Laerm;53743;51.100;5.874;2023-07-24T04:08:40;61.26;33.61;79.56;;
73638;Laerm;53743;51.100;5.874;2023-07-24T04:09:41;40.50;33.30;53.23;;
73638;Laerm;53743;51.100;5.874;2023-07-24T04:10:43;62.46;37.85;73.15;;
73638;Laerm;53743;51.100;5.874;2023-07-24T04:11:45;62.10;37.60;75.15;;
73638;Laerm;53743;51.100;5.874;2023-07-24T04:12:47;57.87;34.17;72.48;;
73638;Laerm;53743;51.100;5.874;2023-07-24T04:13:48;56.64;33.56;71.70;;
73638;Laerm;53743;51.100;5.874;2023-07-24T04:14:50;37.85;33.81;49.09;;
73638;Laerm;53743;51.100;5.874;2023-07-24T04:15:51;37.00;33.82;49.66;;
73638;Laerm;53743;51.100;5.874;2023-07-24T04:16:54;59.76;36.67;75.24;;
73638;Laerm;53743;51.100;5.874;2023-07-24T04:17:56;60.92;36.29;73.84;;
73638;Laerm;53743;51.100;5.874;2023-07-24T04:18:57;39.32;35.75;55.48;;
73638;Laerm;53743;51.100;5.874;2023-07-24T04:19:59;36.94;34.23;44.79;;
73638;Laerm;53743;51.100;5.874;2023-07-24T04:21:00;62.75;35.63;75.23;;
73638;Laerm;53743;51.100;5.874;2023-07-24T04:22:03;62.01;36.91;76.83;;
73638;Laerm;53743;51.100;5.874;2023-07-24T04:23:04;60.84;35.22;74.74;;
73638;Laerm;53743;51.100;5.874;2023-07-24T04:24:06;61.89;37.75;73.40;;
73638;Laerm;53743;51.100;5.874;2023-07-24T04:25:08;61.17;36.01;75.23;;
73638;Laerm;53743;51.100;5.874;2023-07-24T04:26:10;52.48;34.96;66.27;;
73638;Laerm;53743;51.100;5.874;2023-07-24T04:27:11;65.39;41.91;74.54;;
73638;Laerm;53743;51.100;5.874;2023-07-24T04:28:13;63.02;37.52;77.55;;
73638;Laerm;53743;51.100;5.874;2023-07-24T04:29:14;62.04;36.30;79.47;;
73638;Laerm;53743;51.100;5.874;2023-07-24T04:30:16;63.08;38.61;80.50;;
73638;Laerm;53743;51.100;5.874;2023-07-24T04:31:17;57.24;35.43;75.41;;
73638;Laerm;53743;51.100;5.874;2023-07-24T04:32:21;64.68;36.48;79.41;;
73638;Laerm;53743;51.100;5.874;2023-07-24T04:33:22;61.80;37.09;75.41;;
73638;Laerm;53743;51.100;5.874;2023-07-24T04:34:27;55.92;36.76;70.99;;
73638;Laerm;53743;51.100;5.874;2023-07-24T04:35:28;61.14;36.21;72.95;;
73638;Laerm;53743;51.100;5.874;2023-07-24T04:36:30;55.71;35.52;73.66;;
73638;Laerm;53743;51.100;5.874;2023-07-24T04:37:31;58.37;37.57;70.12;;
73638;Laerm;53743;51.100;5.874;2023-07-24T04:38:33;53.84;36.83;69.66;;
73638;Laerm;53743;51.100;5.874;2023-07-24T04:39:34;38.87;36.15;49.94;;
73638;Laerm;53743;51.100;5.874;2023-07-24T04:40:37;62.19;35.11;75.87;;
73638;Laerm;53743;51.100;5.874;2023-07-24T04:41:38;63.93;46.63;76.67;;
73638;Laerm;53743;51.100;5.874;2023-07-24T04:42:40;63.24;39.29;76.85;;
73638;Laerm;53743;51.100;5.874;2023-07-24T04:43:41;59.14;36.41;74.66;;
73638;Laerm;53743;51.100;5.874;2023-07-24T04:44:43;64.51;37.72;74.23;;
73638;Laerm;53743;51.100;5.874;2023-07-24T04:45:44;60.32;37.42;71.44;;
73638;Laerm;53743;51.100;5.874;2023-07-24T04:46:46;62.63;37.17;75.31;;
73638;Laerm;53743;51.100;5.874;2023-07-24T04:47:49;62.49;37.07;77.90;;
73638;Laerm;53743;51.100;5.874;2023-07-24T04:48:51;56.62;35.09;72.74;;
73638;Laerm;53743;51.100;5.874;2023-07-24T04:49:52;62.08;34.99;77.08;;
73638;Laerm;53743;51.100;5.874;2023-07-24T04:50:53;43.27;34.94;50.47;;
73638;Laerm;53743;51.100;5.874;2023-07-24T04:51:56;59.16;37.99;71.25;;
73638;Laerm;53743;51.100;5.874;2023-07-24T04:52:57;65.30;41.52;78.81;;
73638;Laerm;53743;51.100;5.874;2023-07-24T04:53:59;63.66;39.08;73.92;;
73638;Laerm;53743;51.100;5.874;2023-07-24T04:55:00;53.97;36.11;68.22;;
73638;Laerm;53743;51.100;5.874;2023-07-24T04:56:03;63.37;37.85;74.96;;
73638;Laerm;53743;51.100;5.874;2023-07-24T04:57:04;65.05;42.36;76.21;;
73638;Laerm;53743;51.100;5.874;2023-07-24T04:58:07;62.74;38.53;76.58;;
73638;Laerm;53743;51.100;5.874;2023-07-24T04:59:08;61.47;38.52;71.94;;
73638;Laerm;53743;51.100;5.874;2023-07-24T05:00:12;63.89;38.90;75.98;;
73638;Laerm;53743;51.100;5.874;2023-07-24T05:01:13;60.60;37.02;75.81;;
73638;Laerm;53743;51.100;5.874;2023-07-24T05:02:15;62.69;42.76;75.72;;
73638;Laerm;53743;51.100;5.874;2023-07-24T05:03:17;61.93;38.41;76.35;;
73638;Laerm;53743;51.100;5.874;2023-07-24T05:04:19;61.59;38.99;74.44;;
73638;Laerm;53743;51.100;5.874;2023-07-24T05:05:21;60.07;39.29;73.43;;
73638;Laerm;53743;51.100;5.874;2023-07-24T05:06:22;65.29;38.86;79.25;;
73638;Laerm;53743;51.100;5.874;2023-07-24T05:07:24;64.22;39.81;74.24;;
73638;Laerm;53743;51.100;5.874;2023-07-24T05:08:25;58.78;40.52;72.74;;
73638;Laerm;53743;51.100;5.874;2023-07-24T05:09:27;63.84;39.90;78.76;;
73638;Laerm;53743;51.100;5.874;2023-07-24T05:10:28;59.82;36.70;72.65;;
73638;Laerm;53743;51.100;5.874;2023-07-24T05:11:30;63.94;42.71;76.73;;
73638;Laerm;53743;51.100;5.874;2023-07-24T05:12:31;65.70;46.75;74.61;;
73638;Laerm;53743;51.100;5.874;2023-07-24T05:13:33;64.55;43.39;74.52;;
73638;Laerm;53743;51.100;5.874;2023-07-24T05:14:34;62.36;40.66;73.53;;
73638;Laerm;53743;51.100;5.874;2023-07-24T05:15:36;60.72;40.86;73.07;;
73638;Laerm;53743;51.100;5.874;2023-07-24T05:16:37;56.49;38.68;69.76;;
73638;Laerm;53743;51.100;5.874;2023-07-24T05:17:39;66.09;43.02;77.34;;
73638;Laerm;53743;51.100;5.874;2023-07-24T05:18:41;62.27;43.68;73.84;;
73638;Laerm;53743;51.100;5.874;2023-07-24T05:19:43;65.28;42.93;76.89;;
73638;Laerm;53743;51.100;5.874;2023-07-24T05:20:45;65.84;38.76;75.59;;
73638;Laerm;53743;51.100;5.874;2023-07-24T05:21:48;63.95;38.43;77.45;;
73638;Laerm;53743;51.100;5.874;2023-07-24T05:22:49;65.28;43.52;75.28;;
73638;Laerm;53743;51.100;5.874;2023-07-24T05:23:51;61.69;38.89;72.01;;
73638;Laerm;53743;51.100;5.874;2023-07-24T05:24:52;62.26;43.92;77.12;;
73638;Laerm;53743;51.100;5.874;2023-07-24T05:25:58;66.01;49.06;75.44;;
73638;Laerm;53743;51.100;5.874;2023-07-24T05:26:59;64.39;40.72;74.75;;
73638;Laerm;53743;51.100;5.874;2023-07-24T05:28:01;58.43;38.65;70.66;;
73638;Laerm;53743;51.100;5.874;2023-07-24T05:29:02;62.17;39.67;79.08;;
73638;Laerm;53743;51.100;5.874;2023-07-24T05:30:06;66.07;40.32;77.35;;
73638;Laerm;53743;51.100;5.874;2023-07-24T05:31:07;62.89;42.02;72.76;;
73638;Laerm;53743;51.100;5.874;2023-07-24T05:32:09;68.09;47.52;79.70;;
73638;Laerm;53743;51.100;5.874;2023-07-24T05:33:10;58.46;37.07;72.26;;
73638;Laerm;53743;51.100;5.874;2023-07-24T05:34:13;62.09;37.07;73.72;;
73638;Laerm;53743;51.100;5.874;2023-07-24T05:35:15;60.30;38.35;71.33;;
73638;Laerm;53743;51.100;5.874;2023-07-24T05:36:16;66.46;47.27;76.46;;
73638;Laerm;53743;51.100;5.874;2023-07-24T05:37:18;63.99;44.08;76.27;;
73638;Laerm;53743;51.100;5.874;2023-07-24T05:38:19;58.57;39.53;70.71;;
73638;Laerm;53743;51.100;5.874;2023-07-24T05:39:21;65.83;38.63;80.44;;
73638;Laerm;53743;51.100;5.874;2023-07-24T05:40:22;65.49;43.44;76.06;;
73638;Laerm;53743;51.100;5.874;2023-07-24T05:41:24;66.72;49.82;77.20;;
73638;Laerm;53743;51.100;5.874;2023-07-24T05:42:26;64.09;44.24;76.12;;
73638;Laerm;53743;51.100;5.874;2023-07-24T05:43:29;63.67;43.84;74.31;;
73638;Laerm;53743;51.100;5.874;2023-07-24T05:44:30;60.50;40.20;71.12;;
73638;Laerm;53743;51.100;5.874;2023-07-24T05:45:33;61.53;38.36;75.10;;
73638;Laerm;53743;51.100;5.874;2023-07-24T05:46:34;65.43;43.47;80.03;;
73638;Laerm;53743;51.100;5.874;2023-07-24T05:47:36;59.19;43.12;70.92;;
73638;Laerm;53743;51.100;5.874;2023-07-24T05:48:37;66.48;43.76;74.95;;
73638;Laerm;53743;51.100;5.874;2023-07-24T05:49:41;62.95;42.62;75.17;;